createdAt,value
2022-11-09T00:01:51.954Z,16.30
2022-11-09T00:04:21.146Z,17.08
2022-11-09T00:06:51.549Z,15.88
2022-11-09T00:09:21.061Z,12.25
2022-11-09T00:11:50.117Z,13.70
2022-11-09T00:14:19.837Z,13.23
2022-11-09T00:16:49.449Z,18.02
2022-11-09T00:19:19.140Z,10.40
2022-11-09T00:21:49.582Z,19.77
2022-11-09T00:24:20.819Z,17.35
2022-11-09T00:26:49.973Z,15.60
2022-11-09T00:29:19.560Z,12.95
2022-11-09T00:31:51.063Z,14.45
2022-11-09T00:34:20.104Z,19.75
2022-11-09T00:36:52.234Z,9.23
2022-11-09T00:39:22.968Z,11.13
2022-11-09T00:41:52.011Z,14.40
2022-11-09T00:44:21.262Z,17.58
2022-11-09T00:46:50.921Z,11.95
2022-11-09T00:49:21.216Z,17.88
2022-11-09T00:51:50.694Z,13.77
2022-11-09T00:54:20.109Z,12.23
2022-11-09T00:56:51.140Z,12.55
2022-11-09T00:59:20.546Z,12.32
2022-11-09T01:01:50.277Z,15.32
2022-11-09T01:04:23.340Z,16.20
2022-11-09T01:06:52.824Z,18.52
2022-11-09T01:09:24.733Z,13.35
2022-11-09T01:11:55.955Z,18.45
2022-11-09T01:14:25.283Z,12.38
2022-11-09T01:16:54.621Z,11.43
2022-11-09T01:19:23.602Z,14.90
2022-11-09T01:21:58.104Z,10.35
2022-11-09T01:24:27.161Z,15.65
2022-11-09T01:26:59.625Z,5.43
2022-11-09T01:29:28.836Z,7.97
2022-11-09T01:31:58.438Z,7.45
2022-11-09T01:34:30.149Z,13.73
2022-11-09T01:36:59.698Z,15.20
2022-11-09T01:39:28.898Z,13.55
2022-11-09T01:41:59.490Z,11.85
2022-11-09T01:44:29.958Z,6.28
2022-11-09T01:47:00.718Z,15.85
2022-11-09T01:49:37.400Z,14.90
2022-11-09T01:52:08.184Z,9.93
2022-11-09T01:54:39.504Z,18.17
2022-11-09T01:57:12.434Z,13.10
2022-11-09T01:59:46.739Z,11.80
2022-11-09T02:02:16.201Z,11.27
2022-11-09T02:04:48.735Z,12.40
2022-11-09T02:07:18.547Z,8.98
2022-11-09T02:09:50.206Z,21.33
2022-11-09T02:12:25.547Z,7.70
2022-11-09T02:14:56.690Z,15.07
2022-11-09T02:17:27.408Z,13.67
2022-11-09T02:19:59.031Z,12.27
2022-11-09T02:22:30.119Z,10.07
2022-11-09T02:25:02.031Z,16.48
2022-11-09T02:27:31.208Z,11.55
2022-11-09T02:30:03.368Z,9.80
2022-11-09T02:32:33.255Z,14.32
2022-11-09T02:35:03.078Z,12.48
2022-11-09T02:37:44.198Z,9.00
2022-11-09T02:42:43.692Z,10.05
2022-11-09T02:45:12.926Z,14.60
2022-11-09T02:47:43.765Z,13.00
2022-11-09T02:50:13.410Z,21.67
2022-11-09T02:52:43.950Z,13.23
2022-11-09T02:55:16.344Z,12.90
2022-11-09T03:00:17.269Z,11.00
2022-11-09T03:02:48.326Z,10.77
2022-11-09T03:05:18.217Z,10.07
2022-11-09T03:07:51.729Z,8.05
2022-11-09T03:10:21.295Z,5.25
2022-11-09T03:12:51.987Z,9.02
2022-11-09T03:15:21.318Z,11.43
2022-11-09T03:17:51.448Z,9.50
2022-11-09T03:20:21.991Z,9.95
2022-11-09T03:22:52.348Z,12.85
2022-11-09T03:25:21.666Z,13.82
2022-11-09T03:27:52.019Z,13.88
2022-11-09T03:30:21.374Z,6.15
2022-11-09T03:32:51.173Z,11.10
2022-11-09T03:35:20.717Z,8.48
2022-11-09T03:37:50.182Z,6.03
2022-11-09T03:40:21.104Z,5.03
2022-11-09T03:42:53.090Z,6.57
2022-11-09T03:45:23.469Z,3.20
2022-11-09T03:47:54.863Z,7.53
2022-11-09T03:50:25.155Z,4.63
2022-11-09T03:52:55.989Z,6.10
2022-11-09T03:55:26.750Z,5.65
2022-11-09T03:57:58.697Z,6.97
2022-11-09T04:00:27.985Z,5.03
2022-11-09T04:02:57.897Z,4.38
2022-11-09T04:05:27.320Z,4.40
2022-11-09T04:07:57.751Z,6.00
2022-11-09T04:10:28.378Z,6.65
2022-11-09T04:12:57.591Z,3.25
2022-11-09T04:15:26.746Z,8.75
2022-11-09T04:17:56.661Z,5.18
2022-11-09T04:20:28.126Z,6.00
2022-11-09T04:22:57.918Z,7.15
2022-11-09T04:25:29.897Z,4.20
2022-11-09T04:28:00.562Z,6.85
2022-11-09T04:30:30.545Z,4.93
2022-11-09T04:33:00.087Z,4.53
2022-11-09T04:35:30.257Z,6.75
2022-11-09T04:38:00.216Z,8.00
2022-11-09T04:40:32.035Z,9.35
2022-11-09T04:43:01.580Z,6.28
2022-11-09T04:45:31.076Z,6.18
2022-11-09T04:48:00.487Z,7.18
2022-11-09T04:50:31.120Z,11.20
2022-11-09T04:53:08.255Z,8.00
2022-11-09T04:55:38.721Z,6.40
2022-11-09T04:58:08.458Z,5.38
2022-11-09T05:00:38.126Z,8.73
2022-11-09T05:03:12.382Z,6.78
2022-11-09T05:05:48.159Z,6.15
2022-11-09T05:08:17.673Z,10.05
2022-11-09T05:10:48.209Z,8.77
2022-11-09T05:13:17.922Z,7.53
2022-11-09T05:15:47.113Z,6.15
2022-11-09T05:18:16.062Z,4.78
2022-11-09T05:20:45.205Z,10.43
2022-11-09T05:23:32.052Z,9.40
2022-11-09T05:26:02.484Z,8.25
2022-11-09T05:28:31.479Z,8.85
2022-11-09T05:31:00.592Z,20.35
2022-11-09T05:33:29.772Z,6.85
2022-11-09T05:36:00.190Z,6.18
2022-11-09T05:38:29.224Z,4.65
2022-11-09T05:40:58.435Z,3.42
2022-11-09T05:43:29.072Z,5.10
2022-11-09T05:46:01.346Z,3.20
2022-11-09T05:48:33.130Z,5.47
2022-11-09T05:51:03.289Z,4.88
2022-11-09T05:53:32.879Z,3.08
2022-11-09T05:56:06.693Z,2.92
2022-11-09T05:58:38.755Z,1.92
2022-11-09T06:03:36.713Z,3.72
2022-11-09T06:06:08.939Z,2.50
2022-11-09T06:08:38.465Z,2.72
2022-11-09T06:11:09.152Z,3.13
2022-11-09T06:13:39.654Z,2.80
2022-11-09T06:16:08.984Z,2.40
2022-11-09T06:18:38.183Z,3.95
2022-11-09T06:21:07.739Z,3.33
2022-11-09T06:23:36.850Z,2.05
2022-11-09T06:26:08.062Z,2.47
2022-11-09T06:28:37.610Z,3.55
2022-11-09T06:31:09.575Z,5.13
2022-11-09T06:33:38.645Z,2.30
2022-11-09T06:36:08.299Z,3.45
2022-11-09T06:38:37.359Z,1.58
2022-11-09T06:41:06.599Z,1.40
2022-11-09T06:43:35.589Z,4.38
2022-11-09T06:46:04.816Z,2.25
2022-11-09T06:48:35.197Z,1.88
2022-11-09T06:51:04.941Z,1.38
2022-11-09T06:53:35.045Z,3.00
2022-11-09T06:56:04.979Z,2.30
2022-11-09T06:58:34.705Z,3.15
2022-11-09T07:01:10.977Z,3.20
2022-11-09T07:03:42.004Z,2.00
2022-11-09T07:06:12.169Z,1.98
2022-11-09T07:08:43.421Z,3.78
2022-11-09T07:11:13.315Z,3.72
2022-11-09T07:13:42.398Z,3.13
2022-11-09T07:16:12.997Z,1.88
2022-11-09T07:18:45.196Z,2.35
2022-11-09T07:23:48.714Z,3.05
2022-11-09T07:26:18.520Z,4.55
2022-11-09T07:28:48.491Z,8.63
2022-11-09T07:31:18.565Z,1.80
2022-11-09T07:33:51.063Z,1.25
2022-11-09T07:36:24.511Z,1.73
2022-11-09T07:38:54.021Z,3.05
2022-11-09T07:41:23.474Z,1.02
2022-11-09T07:43:55.416Z,2.13
2022-11-09T07:46:26.264Z,1.60
2022-11-09T07:48:56.926Z,2.10
2022-11-09T07:51:26.659Z,3.45
2022-11-09T07:53:57.194Z,3.40
2022-11-09T07:56:26.364Z,3.42
2022-11-09T07:58:55.704Z,1.95
2022-11-09T08:01:25.253Z,3.90
2022-11-09T08:03:54.929Z,2.75
2022-11-09T08:06:28.262Z,2.45
2022-11-09T08:08:58.000Z,1.92
2022-11-09T08:11:28.363Z,2.92
2022-11-09T08:14:00.442Z,4.53
2022-11-09T08:16:34.848Z,3.67
2022-11-09T08:19:09.633Z,1.88
2022-11-09T08:21:40.212Z,7.50
2022-11-09T08:24:09.920Z,4.13
2022-11-09T08:26:41.372Z,3.55
2022-11-09T08:29:13.541Z,3.60
2022-11-09T08:34:13.991Z,2.30
2022-11-09T08:36:44.419Z,3.17
2022-11-09T08:39:17.515Z,3.42
2022-11-09T08:41:46.970Z,3.42
2022-11-09T08:44:16.538Z,3.90
2022-11-09T08:46:45.702Z,5.25
2022-11-09T08:49:18.081Z,2.78
2022-11-09T08:51:50.043Z,3.70
2022-11-09T08:56:48.523Z,5.28
2022-11-09T08:59:22.381Z,4.82
2022-11-09T09:01:52.948Z,2.03
2022-11-09T09:04:22.543Z,1.58
2022-11-09T09:06:57.326Z,3.22
2022-11-09T09:09:26.628Z,1.58
2022-11-09T09:11:55.765Z,3.03
2022-11-09T09:16:56.902Z,1.77
2022-11-09T09:19:29.856Z,1.08
2022-11-09T09:22:00.813Z,0.63
2022-11-09T09:24:30.601Z,3.10
2022-11-09T09:27:00.535Z,2.00
2022-11-09T09:29:32.503Z,2.72
2022-11-09T09:34:31.582Z,2.60
2022-11-09T09:37:14.349Z,1.60
2022-11-09T09:39:44.711Z,2.40
2022-11-09T09:42:18.648Z,2.15
2022-11-09T09:44:56.902Z,1.40
2022-11-09T09:47:32.117Z,1.23
2022-11-09T09:50:06.577Z,1.98
2022-11-09T09:52:40.131Z,2.75
2022-11-09T09:55:12.386Z,2.95
2022-11-09T09:57:43.496Z,1.35
2022-11-09T10:00:20.993Z,3.97
2022-11-09T10:02:51.272Z,3.00
2022-11-09T10:05:21.643Z,3.85
2022-11-09T10:07:56.093Z,2.47
2022-11-09T10:10:34.989Z,4.35
2022-11-09T10:13:19.334Z,3.45
2022-11-09T10:15:52.104Z,2.58
2022-11-09T10:18:33.092Z,3.40
2022-11-09T10:21:22.858Z,1.55
2022-11-09T10:24:17.248Z,2.03
2022-11-09T10:26:55.351Z,2.95
2022-11-09T10:29:25.819Z,1.92
2022-11-09T10:31:56.254Z,2.40
2022-11-09T10:34:27.727Z,1.73
2022-11-09T10:37:11.143Z,3.58
2022-11-09T10:39:47.281Z,3.53
2022-11-09T10:42:35.454Z,2.65
2022-11-09T10:45:32.394Z,2.30
2022-11-09T10:48:32.782Z,1.80
2022-11-09T10:51:37.674Z,4.00
2022-11-09T10:54:31.657Z,4.65
2022-11-09T10:57:21.590Z,4.55
2022-11-09T11:00:19.591Z,4.05
2022-11-09T11:03:14.305Z,2.25
2022-11-09T11:06:04.045Z,4.72
2022-11-09T11:08:52.977Z,3.83
2022-11-09T11:11:42.416Z,4.43
2022-11-09T11:14:36.515Z,2.60
2022-11-09T11:17:27.663Z,2.55
2022-11-09T11:20:30.738Z,3.40
2022-11-09T11:23:28.645Z,2.60
2022-11-09T11:26:30.001Z,3.90
2022-11-09T11:29:34.382Z,2.10
2022-11-09T11:32:28.476Z,3.13
2022-11-09T11:35:23.681Z,3.40
2022-11-09T11:38:22.159Z,3.85
2022-11-09T11:41:17.894Z,4.72
2022-11-09T11:44:12.836Z,2.63
2022-11-09T11:47:03.771Z,2.90
2022-11-09T11:49:58.516Z,5.32
2022-11-09T11:52:53.420Z,4.60
2022-11-09T11:55:51.882Z,1.85
2022-11-09T11:58:49.562Z,4.95
2022-11-09T12:01:45.630Z,2.00
2022-11-09T12:04:52.675Z,3.65
2022-11-09T12:07:42.437Z,3.22
2022-11-09T12:10:38.530Z,6.32
2022-11-09T12:13:35.719Z,4.45
2022-11-09T12:16:26.601Z,4.97
2022-11-09T12:19:35.540Z,2.45
2022-11-09T12:22:28.637Z,7.18
2022-11-09T12:25:18.777Z,6.05
2022-11-09T12:28:15.893Z,2.80
2022-11-09T12:31:11.209Z,2.53
2022-11-09T12:34:04.186Z,6.03
2022-11-09T12:36:55.592Z,3.25
2022-11-09T12:39:47.754Z,2.40
2022-11-09T12:42:41.707Z,2.42
2022-11-09T12:45:30.964Z,6.88
2022-11-09T12:48:26.177Z,2.65
2022-11-09T12:51:14.397Z,3.90
2022-11-09T12:54:10.316Z,3.85
2022-11-09T12:57:01.852Z,1.85
2022-11-09T12:59:53.589Z,5.68
2022-11-09T13:02:45.414Z,6.47
2022-11-09T13:05:34.400Z,4.30
2022-11-09T13:08:26.432Z,2.63
2022-11-09T13:11:21.532Z,2.67
2022-11-09T13:14:30.465Z,1.73
2022-11-09T13:17:37.451Z,4.13
2022-11-09T13:20:55.169Z,4.00
2022-11-09T13:24:00.773Z,2.45
2022-11-09T13:26:57.087Z,3.95
2022-11-09T13:29:56.596Z,3.83
2022-11-09T13:33:05.020Z,5.50
2022-11-09T13:36:07.396Z,7.53
2022-11-09T13:39:12.496Z,5.32
2022-11-09T13:42:02.100Z,7.95
2022-11-09T13:44:50.089Z,5.55
2022-11-09T13:47:38.833Z,6.15
2022-11-09T13:50:27.419Z,2.95
2022-11-09T13:53:29.681Z,5.18
2022-11-09T13:56:26.110Z,5.15
2022-11-09T13:59:19.022Z,3.40
2022-11-09T14:02:17.726Z,3.92
2022-11-09T14:05:05.686Z,1.75
2022-11-09T14:07:55.307Z,2.45
2022-11-09T14:10:56.434Z,5.65
2022-11-09T14:14:02.208Z,4.55
2022-11-09T14:16:57.888Z,2.47
2022-11-09T14:19:52.522Z,4.70
2022-11-09T14:22:42.292Z,3.45
2022-11-09T14:25:32.194Z,7.45
2022-11-09T14:28:24.466Z,4.45
2022-11-09T14:31:23.514Z,5.32
2022-11-09T14:34:16.933Z,3.95
2022-11-09T14:37:07.741Z,2.75
2022-11-09T14:39:59.456Z,4.13
2022-11-09T14:42:51.056Z,2.47
2022-11-09T14:45:38.713Z,2.47
2022-11-09T14:48:27.172Z,3.95
2022-11-09T14:51:16.817Z,2.75
2022-11-09T14:54:08.258Z,3.00
2022-11-09T14:56:59.748Z,1.42
2022-11-09T14:59:48.005Z,3.33
2022-11-09T15:02:37.406Z,4.00
2022-11-09T15:05:36.776Z,2.75
2022-11-09T15:08:26.953Z,8.25
2022-11-09T15:11:14.490Z,5.80
2022-11-09T15:14:12.539Z,4.95
2022-11-09T15:17:06.955Z,1.40
2022-11-09T15:19:55.592Z,5.35
2022-11-09T15:22:51.625Z,2.53
2022-11-09T15:25:55.254Z,3.38
2022-11-09T15:28:46.223Z,4.53
2022-11-09T15:31:33.972Z,4.30
2022-11-09T15:34:23.726Z,4.75
2022-11-09T15:37:22.638Z,5.95
2022-11-09T15:40:12.493Z,2.92
2022-11-09T15:43:02.036Z,6.20
2022-11-09T15:45:49.812Z,4.00
2022-11-09T15:48:40.981Z,3.13
2022-11-09T15:51:33.142Z,3.08
2022-11-09T15:54:21.789Z,4.95
2022-11-09T15:57:09.732Z,3.95
2022-11-09T16:00:01.584Z,4.45
2022-11-09T16:02:49.570Z,5.45
2022-11-09T16:05:37.157Z,1.77
2022-11-09T16:08:26.798Z,3.28
2022-11-09T16:11:14.721Z,4.30
2022-11-09T16:14:02.799Z,3.03
2022-11-09T16:16:52.542Z,4.78
2022-11-09T16:19:42.657Z,6.60
2022-11-09T16:22:33.250Z,8.55
2022-11-09T16:25:22.080Z,6.80
2022-11-09T16:28:10.770Z,3.15
2022-11-09T16:31:01.083Z,3.85
2022-11-09T16:33:54.380Z,4.38
2022-11-09T16:36:48.754Z,9.57
2022-11-09T16:39:39.009Z,2.58
2022-11-09T16:42:27.735Z,6.25
2022-11-09T16:45:16.907Z,2.50
2022-11-09T16:48:12.623Z,6.88
2022-11-09T16:51:01.691Z,4.50
2022-11-09T16:53:49.574Z,2.92
2022-11-09T16:56:37.804Z,5.75
2022-11-09T16:59:26.659Z,3.33
2022-11-09T17:02:14.932Z,8.48
2022-11-09T17:05:02.886Z,7.63
2022-11-09T17:07:52.207Z,7.30
2022-11-09T17:10:42.416Z,3.20
2022-11-09T17:13:29.921Z,7.80
2022-11-09T17:16:20.573Z,6.97
2022-11-09T17:19:08.675Z,6.38
2022-11-09T17:21:56.553Z,4.28
2022-11-09T17:24:45.679Z,4.50
2022-11-09T17:27:33.333Z,3.00
2022-11-09T17:30:20.807Z,5.03
2022-11-09T17:33:08.591Z,3.70
2022-11-09T17:36:03.069Z,4.72
2022-11-09T17:38:51.015Z,7.45
2022-11-09T17:41:42.727Z,4.82
2022-11-09T17:44:30.737Z,6.22
2022-11-09T17:47:18.360Z,6.68
2022-11-09T17:50:06.508Z,4.85
2022-11-09T17:52:54.204Z,5.00
2022-11-09T17:55:41.945Z,4.97
2022-11-09T17:58:32.070Z,7.57
2022-11-09T18:01:22.980Z,7.85
2022-11-09T18:04:11.863Z,6.03
2022-11-09T18:07:00.813Z,8.52
2022-11-09T18:09:49.069Z,6.00
2022-11-09T18:12:37.422Z,4.38
2022-11-09T18:15:26.551Z,7.00
2022-11-09T18:18:14.406Z,7.68
2022-11-09T18:21:07.406Z,6.47
2022-11-09T18:23:54.982Z,4.35
2022-11-09T18:26:42.851Z,8.27
2022-11-09T18:29:33.212Z,4.25
2022-11-09T18:32:22.664Z,5.55
2022-11-09T18:35:10.748Z,13.68
2022-11-09T18:37:58.214Z,8.50
2022-11-09T18:40:46.114Z,8.25
2022-11-09T18:43:36.237Z,8.57
2022-11-09T18:46:23.933Z,7.38
2022-11-09T18:49:14.440Z,8.48
2022-11-09T18:52:02.500Z,6.80
2022-11-09T18:54:50.640Z,7.88
2022-11-09T18:57:38.771Z,7.20
2022-11-09T19:00:26.580Z,9.63
2022-11-09T19:03:16.082Z,10.95
2022-11-09T19:06:07.767Z,3.38
2022-11-09T19:09:13.417Z,5.45
2022-11-09T19:12:02.364Z,4.80
2022-11-09T19:14:49.997Z,7.53
2022-11-09T19:17:39.623Z,4.97
2022-11-09T19:20:27.196Z,9.40
2022-11-09T19:23:16.596Z,6.40
2022-11-09T19:26:04.348Z,3.55
2022-11-09T19:28:52.179Z,4.53
2022-11-09T19:31:43.184Z,8.05
2022-11-09T19:34:31.007Z,4.88
2022-11-09T19:37:19.022Z,7.38
2022-11-09T19:40:12.641Z,6.13
2022-11-09T19:43:07.204Z,13.00
2022-11-09T19:49:55.570Z,6.90
2022-11-09T19:52:43.128Z,5.05
2022-11-09T19:55:32.244Z,10.60
2022-11-09T19:58:20.094Z,9.88
2022-11-09T20:01:09.555Z,4.97
2022-11-09T20:03:58.508Z,7.55
2022-11-09T20:07:36.906Z,5.78
2022-11-09T20:10:27.833Z,8.45
2022-11-09T20:13:19.536Z,7.80
2022-11-09T20:16:08.854Z,8.98
2022-11-09T20:18:56.640Z,8.98
2022-11-09T20:21:45.822Z,9.35
2022-11-09T20:24:33.913Z,7.35
2022-11-09T20:27:21.817Z,6.47
2022-11-09T20:30:11.674Z,10.77
2022-11-09T20:32:59.422Z,5.90
2022-11-09T20:35:54.433Z,7.28
2022-11-09T20:38:42.368Z,8.63
2022-11-09T20:41:31.433Z,7.18
2022-11-09T20:44:18.856Z,13.98
2022-11-09T20:47:09.656Z,8.88
2022-11-09T20:49:58.617Z,8.75
2022-11-09T20:52:46.735Z,18.45
2022-11-09T20:55:34.699Z,12.73
2022-11-09T20:58:26.302Z,9.75
2022-11-09T21:01:16.185Z,8.02
2022-11-09T21:04:08.514Z,6.70
2022-11-09T21:06:56.666Z,9.55
2022-11-09T21:09:44.761Z,12.98
2022-11-09T21:12:32.399Z,6.97
2022-11-09T21:15:20.600Z,8.02
2022-11-09T21:18:08.702Z,7.05
2022-11-09T21:20:57.833Z,12.48
2022-11-09T21:24:03.238Z,7.45
2022-11-09T21:27:08.637Z,8.70
2022-11-09T21:29:56.348Z,11.10
2022-11-09T21:32:43.839Z,7.85
2022-11-09T21:35:31.788Z,14.25
2022-11-09T21:38:21.562Z,14.52
2022-11-09T21:41:28.074Z,9.15
2022-11-09T21:44:16.315Z,9.48
2022-11-09T21:47:04.351Z,7.28
2022-11-09T21:49:51.829Z,10.52
2022-11-09T21:52:39.613Z,10.95
2022-11-09T21:55:29.160Z,9.45
2022-11-09T21:58:17.322Z,10.18
2022-11-09T22:01:05.468Z,10.80
2022-11-09T22:03:54.248Z,7.45
2022-11-09T22:06:43.492Z,9.55
2022-11-09T22:09:50.432Z,9.68
2022-11-09T22:12:58.391Z,6.53
2022-11-09T22:16:03.451Z,5.05
2022-11-09T22:19:09.288Z,6.57
2022-11-09T22:21:57.070Z,7.72
2022-11-09T22:24:45.447Z,8.63
2022-11-09T22:27:33.359Z,14.68
2022-11-09T22:30:22.452Z,12.20
2022-11-09T22:33:10.473Z,9.73
2022-11-09T22:35:58.780Z,9.20
2022-11-09T22:38:46.769Z,18.63
2022-11-09T22:41:34.787Z,20.67
2022-11-09T22:44:22.804Z,5.30
2022-11-09T22:47:11.544Z,12.02
2022-11-09T22:49:59.268Z,7.22
2022-11-09T22:52:49.770Z,9.50
2022-11-09T22:55:39.724Z,14.77
2022-11-09T22:58:27.860Z,6.50
2022-11-09T23:01:16.601Z,19.88
2022-11-09T23:04:06.389Z,9.07
2022-11-09T23:06:54.495Z,11.27
2022-11-09T23:09:42.202Z,13.13
2022-11-09T23:12:30.026Z,10.68
2022-11-09T23:15:17.840Z,13.85
2022-11-09T23:18:23.512Z,12.73
2022-11-09T23:21:13.765Z,16.20
2022-11-09T23:24:02.028Z,5.43
2022-11-09T23:26:49.841Z,11.20
2022-11-09T23:29:37.732Z,7.50
2022-11-09T23:32:31.797Z,8.60
2022-11-09T23:35:19.885Z,15.93
2022-11-09T23:38:08.887Z,10.55
2022-11-09T23:40:56.948Z,13.43
2022-11-09T23:43:49.190Z,6.05
2022-11-09T23:46:37.551Z,10.27
2022-11-09T23:49:25.519Z,14.57
2022-11-09T23:52:13.130Z,8.73
2022-11-09T23:55:02.487Z,8.57
2022-11-09T23:57:50.303Z,12.10
